sensor_id;sensor_type;location;lat;lon;timestamp;P1;durP1;ratioP1;P2;durP2;ratioP2
2928;SDS011;1474;51.460;7.150;2023-11-19T00:02:21;0.73;;;0.38;;
2928;SDS011;1474;51.460;7.150;2023-11-19T00:04:47;0.35;;;0.30;;
2928;SDS011;1474;51.460;7.150;2023-11-19T00:07:13;0.40;;;0.32;;
2928;SDS011;1474;51.460;7.150;2023-11-19T00:09:39;0.30;;;0.30;;
2928;SDS011;1474;51.460;7.150;2023-11-19T00:12:05;0.57;;;0.35;;
2928;SDS011;1474;51.460;7.150;2023-11-19T00:14:32;0.77;;;0.57;;
2928;SDS011;1474;51.460;7.150;2023-11-19T00:16:59;0.88;;;0.32;;
2928;SDS011;1474;51.460;7.150;2023-11-19T00:19:25;0.30;;;0.20;;
2928;SDS011;1474;51.460;7.150;2023-11-19T00:21:51;0.30;;;0.30;;
2928;SDS011;1474;51.460;7.150;2023-11-19T00:24:18;0.40;;;0.30;;
2928;SDS011;1474;51.460;7.150;2023-11-19T00:26:44;0.47;;;0.35;;
2928;SDS011;1474;51.460;7.150;2023-11-19T00:29:10;0.50;;;0.35;;
2928;SDS011;1474;51.460;7.150;2023-11-19T00:31:36;0.40;;;0.30;;
2928;SDS011;1474;51.460;7.150;2023-11-19T00:34:02;0.20;;;0.20;;
2928;SDS011;1474;51.460;7.150;2023-11-19T00:36:28;0.68;;;0.20;;
2928;SDS011;1474;51.460;7.150;2023-11-19T00:38:54;0.50;;;0.30;;
2928;SDS011;1474;51.460;7.150;2023-11-19T00:41:20;0.90;;;0.47;;
2928;SDS011;1474;51.460;7.150;2023-11-19T00:43:47;0.40;;;0.30;;
2928;SDS011;1474;51.460;7.150;2023-11-19T00:46:14;0.73;;;0.40;;
2928;SDS011;1474;51.460;7.150;2023-11-19T00:48:39;0.38;;;0.30;;
2928;SDS011;1474;51.460;7.150;2023-11-19T00:51:05;0.30;;;0.30;;
2928;SDS011;1474;51.460;7.150;2023-11-19T00:53:32;0.20;;;0.20;;
2928;SDS011;1474;51.460;7.150;2023-11-19T00:55:59;0.20;;;0.20;;
2928;SDS011;1474;51.460;7.150;2023-11-19T00:58:25;0.40;;;0.40;;
2928;SDS011;1474;51.460;7.150;2023-11-19T01:00:51;0.57;;;0.40;;
2928;SDS011;1474;51.460;7.150;2023-11-19T01:03:17;0.77;;;0.40;;
2928;SDS011;1474;51.460;7.150;2023-11-19T01:05:43;0.60;;;0.40;;
2928;SDS011;1474;51.460;7.150;2023-11-19T01:08:09;0.40;;;0.40;;
2928;SDS011;1474;51.460;7.150;2023-11-19T01:10:38;0.30;;;0.30;;
2928;SDS011;1474;51.460;7.150;2023-11-19T01:13:04;0.30;;;0.30;;
2928;SDS011;1474;51.460;7.150;2023-11-19T01:15:31;0.47;;;0.30;;
2928;SDS011;1474;51.460;7.150;2023-11-19T01:17:58;0.30;;;0.25;;
2928;SDS011;1474;51.460;7.150;2023-11-19T01:20:23;0.30;;;0.30;;
2928;SDS011;1474;51.460;7.150;2023-11-19T01:22:50;0.30;;;0.30;;
2928;SDS011;1474;51.460;7.150;2023-11-19T01:25:16;0.38;;;0.38;;
2928;SDS011;1474;51.460;7.150;2023-11-19T01:27:41;0.73;;;0.40;;
2928;SDS011;1474;51.460;7.150;2023-11-19T01:30:08;0.20;;;0.20;;
2928;SDS011;1474;51.460;7.150;2023-11-19T01:32:37;0.30;;;0.30;;
2928;SDS011;1474;51.460;7.150;2023-11-19T01:35:05;0.22;;;0.20;;
2928;SDS011;1474;51.460;7.150;2023-11-19T01:37:31;0.43;;;0.30;;
2928;SDS011;1474;51.460;7.150;2023-11-19T01:39:57;0.28;;;0.28;;
2928;SDS011;1474;51.460;7.150;2023-11-19T01:42:23;0.28;;;0.28;;
2928;SDS011;1474;51.460;7.150;2023-11-19T01:44:57;0.32;;;0.32;;
2928;SDS011;1474;51.460;7.150;2023-11-19T01:47:24;0.30;;;0.30;;
2928;SDS011;1474;51.460;7.150;2023-11-19T01:49:51;0.32;;;0.30;;
2928;SDS011;1474;51.460;7.150;2023-11-19T01:52:18;0.20;;;0.20;;
2928;SDS011;1474;51.460;7.150;2023-11-19T01:54:45;0.68;;;0.50;;
2928;SDS011;1474;51.460;7.150;2023-11-19T01:57:12;0.20;;;0.20;;
2928;SDS011;1474;51.460;7.150;2023-11-19T01:59:38;0.63;;;0.30;;
2928;SDS011;1474;51.460;7.150;2023-11-19T02:02:05;0.68;;;0.40;;
2928;SDS011;1474;51.460;7.150;2023-11-19T02:04:31;0.50;;;0.30;;
2928;SDS011;1474;51.460;7.150;2023-11-19T02:06:59;0.63;;;0.35;;
2928;SDS011;1474;51.460;7.150;2023-11-19T02:09:25;0.30;;;0.30;;
2928;SDS011;1474;51.460;7.150;2023-11-19T02:11:52;0.30;;;0.25;;
2928;SDS011;1474;51.460;7.150;2023-11-19T02:14:19;0.20;;;0.20;;
2928;SDS011;1474;51.460;7.150;2023-11-19T02:16:51;0.50;;;0.30;;
2928;SDS011;1474;51.460;7.150;2023-11-19T02:19:20;0.35;;;0.35;;
2928;SDS011;1474;51.460;7.150;2023-11-19T02:21:46;0.45;;;0.30;;
2928;SDS011;1474;51.460;7.150;2023-11-19T02:24:12;0.30;;;0.30;;
2928;SDS011;1474;51.460;7.150;2023-11-19T02:26:52;0.40;;;0.30;;
2928;SDS011;1474;51.460;7.150;2023-11-19T02:29:40;0.50;;;0.40;;
2928;SDS011;1474;51.460;7.150;2023-11-19T02:32:07;0.28;;;0.28;;
2928;SDS011;1474;51.460;7.150;2023-11-19T02:34:35;0.57;;;0.38;;
2928;SDS011;1474;51.460;7.150;2023-11-19T02:37:00;2.50;;;0.35;;
2928;SDS011;1474;51.460;7.150;2023-11-19T02:39:26;0.30;;;0.22;;
2928;SDS011;1474;51.460;7.150;2023-11-19T02:41:52;0.35;;;0.35;;
2928;SDS011;1474;51.460;7.150;2023-11-19T02:44:18;0.20;;;0.20;;
2928;SDS011;1474;51.460;7.150;2023-11-19T02:46:44;0.40;;;0.30;;
2928;SDS011;1474;51.460;7.150;2023-11-19T02:49:09;0.50;;;0.50;;
2928;SDS011;1474;51.460;7.150;2023-11-19T02:51:35;0.22;;;0.20;;
2928;SDS011;1474;51.460;7.150;2023-11-19T02:54:01;0.52;;;0.20;;
2928;SDS011;1474;51.460;7.150;2023-11-19T02:56:28;0.28;;;0.20;;
2928;SDS011;1474;51.460;7.150;2023-11-19T02:58:59;0.25;;;0.25;;
2928;SDS011;1474;51.460;7.150;2023-11-19T03:01:32;0.20;;;0.20;;
2928;SDS011;1474;51.460;7.150;2023-11-19T03:04:00;0.20;;;0.20;;
2928;SDS011;1474;51.460;7.150;2023-11-19T03:06:27;0.43;;;0.30;;
2928;SDS011;1474;51.460;7.150;2023-11-19T03:08:54;0.38;;;0.30;;
2928;SDS011;1474;51.460;7.150;2023-11-19T03:11:20;0.28;;;0.28;;
2928;SDS011;1474;51.460;7.150;2023-11-19T03:13:46;0.60;;;0.38;;
2928;SDS011;1474;51.460;7.150;2023-11-19T03:16:12;1.45;;;0.43;;
2928;SDS011;1474;51.460;7.150;2023-11-19T03:18:38;0.17;;;0.17;;
2928;SDS011;1474;51.460;7.150;2023-11-19T03:21:07;0.40;;;0.20;;
2928;SDS011;1474;51.460;7.150;2023-11-19T03:23:33;0.30;;;0.30;;
2928;SDS011;1474;51.460;7.150;2023-11-19T03:26:00;0.47;;;0.20;;
2928;SDS011;1474;51.460;7.150;2023-11-19T03:28:30;0.20;;;0.20;;
2928;SDS011;1474;51.460;7.150;2023-11-19T03:30:56;0.20;;;0.20;;
2928;SDS011;1474;51.460;7.150;2023-11-19T03:33:21;0.20;;;0.20;;
2928;SDS011;1474;51.460;7.150;2023-11-19T03:35:47;0.55;;;0.47;;
2928;SDS011;1474;51.460;7.150;2023-11-19T03:38:13;0.20;;;0.20;;
2928;SDS011;1474;51.460;7.150;2023-11-19T03:40:39;0.35;;;0.35;;
2928;SDS011;1474;51.460;7.150;2023-11-19T03:43:05;0.75;;;0.20;;
2928;SDS011;1474;51.460;7.150;2023-11-19T03:45:31;0.38;;;0.30;;
2928;SDS011;1474;51.460;7.150;2023-11-19T03:47:57;1.05;;;0.20;;
2928;SDS011;1474;51.460;7.150;2023-11-19T03:50:22;0.28;;;0.20;;
2928;SDS011;1474;51.460;7.150;2023-11-19T03:52:49;0.30;;;0.30;;
2928;SDS011;1474;51.460;7.150;2023-11-19T03:55:15;0.20;;;0.20;;
2928;SDS011;1474;51.460;7.150;2023-11-19T03:57:41;0.45;;;0.30;;
2928;SDS011;1474;51.460;7.150;2023-11-19T04:00:06;0.20;;;0.20;;
2928;SDS011;1474;51.460;7.150;2023-11-19T04:02:35;0.22;;;0.20;;
2928;SDS011;1474;51.460;7.150;2023-11-19T04:05:04;0.20;;;0.20;;
2928;SDS011;1474;51.460;7.150;2023-11-19T04:07:32;0.22;;;0.20;;
2928;SDS011;1474;51.460;7.150;2023-11-19T04:09:59;0.90;;;0.30;;
2928;SDS011;1474;51.460;7.150;2023-11-19T04:12:25;0.52;;;0.35;;
2928;SDS011;1474;51.460;7.150;2023-11-19T04:14:51;0.40;;;0.40;;
2928;SDS011;1474;51.460;7.150;2023-11-19T04:17:16;1.27;;;0.40;;
2928;SDS011;1474;51.460;7.150;2023-11-19T04:19:42;0.65;;;0.13;;
2928;SDS011;1474;51.460;7.150;2023-11-19T04:22:08;0.88;;;0.47;;
2928;SDS011;1474;51.460;7.150;2023-11-19T04:24:34;0.30;;;0.22;;
2928;SDS011;1474;51.460;7.150;2023-11-19T04:27:00;0.55;;;0.45;;
2928;SDS011;1474;51.460;7.150;2023-11-19T04:29:26;1.05;;;0.85;;
2928;SDS011;1474;51.460;7.150;2023-11-19T04:31:52;0.20;;;0.20;;
2928;SDS011;1474;51.460;7.150;2023-11-19T04:34:18;0.10;;;0.10;;
2928;SDS011;1474;51.460;7.150;2023-11-19T04:36:43;0.73;;;0.55;;
2928;SDS011;1474;51.460;7.150;2023-11-19T04:39:09;0.30;;;0.28;;
2928;SDS011;1474;51.460;7.150;2023-11-19T04:41:47;0.15;;;0.13;;
2928;SDS011;1474;51.460;7.150;2023-11-19T04:44:19;0.20;;;0.20;;
2928;SDS011;1474;51.460;7.150;2023-11-19T04:46:46;0.52;;;0.30;;
2928;SDS011;1474;51.460;7.150;2023-11-19T04:49:12;0.32;;;0.30;;
2928;SDS011;1474;51.460;7.150;2023-11-19T04:51:39;0.10;;;0.10;;
2928;SDS011;1474;51.460;7.150;2023-11-19T04:56:36;1.13;;;0.40;;
2928;SDS011;1474;51.460;7.150;2023-11-19T04:59:02;0.75;;;0.30;;
2928;SDS011;1474;51.460;7.150;2023-11-19T05:01:30;0.30;;;0.30;;
2928;SDS011;1474;51.460;7.150;2023-11-19T05:03:57;0.80;;;0.63;;
2928;SDS011;1474;51.460;7.150;2023-11-19T05:06:25;1.02;;;0.52;;
2928;SDS011;1474;51.460;7.150;2023-11-19T05:08:53;0.35;;;0.35;;
2928;SDS011;1474;51.460;7.150;2023-11-19T05:11:19;2.25;;;0.40;;
2928;SDS011;1474;51.460;7.150;2023-11-19T05:13:45;0.22;;;0.20;;
2928;SDS011;1474;51.460;7.150;2023-11-19T05:16:11;0.93;;;0.40;;
2928;SDS011;1474;51.460;7.150;2023-11-19T05:18:39;0.95;;;0.50;;
2928;SDS011;1474;51.460;7.150;2023-11-19T05:21:05;0.70;;;0.30;;
2928;SDS011;1474;51.460;7.150;2023-11-19T05:23:32;0.47;;;0.35;;
2928;SDS011;1474;51.460;7.150;2023-11-19T05:26:01;0.40;;;0.40;;
2928;SDS011;1474;51.460;7.150;2023-11-19T05:28:27;0.57;;;0.30;;
2928;SDS011;1474;51.460;7.150;2023-11-19T05:30:53;0.47;;;0.40;;
2928;SDS011;1474;51.460;7.150;2023-11-19T05:33:19;1.45;;;0.40;;
2928;SDS011;1474;51.460;7.150;2023-11-19T05:35:45;0.43;;;0.20;;
2928;SDS011;1474;51.460;7.150;2023-11-19T05:38:10;0.30;;;0.22;;
2928;SDS011;1474;51.460;7.150;2023-11-19T05:40:36;0.28;;;0.20;;
2928;SDS011;1474;51.460;7.150;2023-11-19T05:43:03;0.52;;;0.43;;
2928;SDS011;1474;51.460;7.150;2023-11-19T05:45:30;0.30;;;0.30;;
2928;SDS011;1474;51.460;7.150;2023-11-19T05:47:57;0.50;;;0.28;;
2928;SDS011;1474;51.460;7.150;2023-11-19T05:50:23;0.50;;;0.30;;
2928;SDS011;1474;51.460;7.150;2023-11-19T05:52:49;0.32;;;0.30;;
2928;SDS011;1474;51.460;7.150;2023-11-19T05:55:15;0.40;;;0.20;;
2928;SDS011;1474;51.460;7.150;2023-11-19T05:57:41;1.98;;;0.43;;
2928;SDS011;1474;51.460;7.150;2023-11-19T06:00:07;0.47;;;0.30;;
2928;SDS011;1474;51.460;7.150;2023-11-19T06:02:35;0.32;;;0.20;;
2928;SDS011;1474;51.460;7.150;2023-11-19T06:05:03;1.08;;;0.28;;
2928;SDS011;1474;51.460;7.150;2023-11-19T06:07:34;0.22;;;0.20;;
2928;SDS011;1474;51.460;7.150;2023-11-19T06:10:01;2.55;;;0.50;;
2928;SDS011;1474;51.460;7.150;2023-11-19T06:12:30;0.68;;;0.20;;
2928;SDS011;1474;51.460;7.150;2023-11-19T06:14:56;1.10;;;0.40;;
2928;SDS011;1474;51.460;7.150;2023-11-19T06:17:22;1.10;;;0.30;;
2928;SDS011;1474;51.460;7.150;2023-11-19T06:19:48;0.98;;;0.50;;
2928;SDS011;1474;51.460;7.150;2023-11-19T06:22:14;0.43;;;0.40;;
2928;SDS011;1474;51.460;7.150;2023-11-19T06:24:39;0.95;;;0.35;;
2928;SDS011;1474;51.460;7.150;2023-11-19T06:27:05;0.57;;;0.30;;
2928;SDS011;1474;51.460;7.150;2023-11-19T06:29:31;1.20;;;0.35;;
2928;SDS011;1474;51.460;7.150;2023-11-19T06:31:56;0.82;;;0.40;;
2928;SDS011;1474;51.460;7.150;2023-11-19T06:34:22;0.65;;;0.40;;
2928;SDS011;1474;51.460;7.150;2023-11-19T06:36:48;0.65;;;0.20;;
2928;SDS011;1474;51.460;7.150;2023-11-19T06:39:13;2.00;;;0.40;;
2928;SDS011;1474;51.460;7.150;2023-11-19T06:41:44;0.70;;;0.40;;
2928;SDS011;1474;51.460;7.150;2023-11-19T06:44:11;1.27;;;0.45;;
2928;SDS011;1474;51.460;7.150;2023-11-19T06:46:37;2.05;;;0.60;;
2928;SDS011;1474;51.460;7.150;2023-11-19T06:49:03;0.90;;;0.57;;
2928;SDS011;1474;51.460;7.150;2023-11-19T06:51:28;1.20;;;0.50;;
2928;SDS011;1474;51.460;7.150;2023-11-19T06:53:54;0.43;;;0.40;;
2928;SDS011;1474;51.460;7.150;2023-11-19T06:56:21;1.85;;;0.43;;
2928;SDS011;1474;51.460;7.150;2023-11-19T06:58:48;0.52;;;0.40;;
2928;SDS011;1474;51.460;7.150;2023-11-19T07:01:15;0.57;;;0.40;;
2928;SDS011;1474;51.460;7.150;2023-11-19T07:03:46;1.15;;;0.40;;
2928;SDS011;1474;51.460;7.150;2023-11-19T07:06:13;1.33;;;0.52;;
2928;SDS011;1474;51.460;7.150;2023-11-19T07:08:40;0.70;;;0.30;;
2928;SDS011;1474;51.460;7.150;2023-11-19T07:11:09;1.50;;;0.43;;
2928;SDS011;1474;51.460;7.150;2023-11-19T07:13:37;1.13;;;0.40;;
2928;SDS011;1474;51.460;7.150;2023-11-19T07:16:03;1.05;;;0.38;;
2928;SDS011;1474;51.460;7.150;2023-11-19T07:18:29;1.20;;;0.60;;
2928;SDS011;1474;51.460;7.150;2023-11-19T07:20:56;1.83;;;0.60;;
2928;SDS011;1474;51.460;7.150;2023-11-19T07:23:24;1.15;;;0.47;;
2928;SDS011;1474;51.460;7.150;2023-11-19T07:25:51;0.88;;;0.50;;
2928;SDS011;1474;51.460;7.150;2023-11-19T07:28:18;0.57;;;0.45;;
2928;SDS011;1474;51.460;7.150;2023-11-19T07:30:44;0.52;;;0.40;;
2928;SDS011;1474;51.460;7.150;2023-11-19T07:33:09;0.85;;;0.40;;
2928;SDS011;1474;51.460;7.150;2023-11-19T07:35:35;1.73;;;0.60;;
2928;SDS011;1474;51.460;7.150;2023-11-19T07:38:01;2.67;;;1.10;;
2928;SDS011;1474;51.460;7.150;2023-11-19T07:40:27;1.38;;;0.47;;
2928;SDS011;1474;51.460;7.150;2023-11-19T07:42:53;1.33;;;0.40;;
2928;SDS011;1474;51.460;7.150;2023-11-19T07:45:19;1.25;;;0.50;;
2928;SDS011;1474;51.460;7.150;2023-11-19T07:47:45;1.90;;;1.10;;
2928;SDS011;1474;51.460;7.150;2023-11-19T07:50:10;0.90;;;0.30;;
2928;SDS011;1474;51.460;7.150;2023-11-19T07:52:39;0.57;;;0.50;;
2928;SDS011;1474;51.460;7.150;2023-11-19T07:55:05;1.90;;;0.85;;
2928;SDS011;1474;51.460;7.150;2023-11-19T07:57:31;0.40;;;0.22;;
2928;SDS011;1474;51.460;7.150;2023-11-19T07:59:57;1.38;;;0.63;;
2928;SDS011;1474;51.460;7.150;2023-11-19T08:02:23;0.40;;;0.30;;
2928;SDS011;1474;51.460;7.150;2023-11-19T08:04:49;1.95;;;0.43;;
2928;SDS011;1474;51.460;7.150;2023-11-19T08:07:17;2.42;;;0.65;;
2928;SDS011;1474;51.460;7.150;2023-11-19T08:09:44;2.17;;;0.57;;
2928;SDS011;1474;51.460;7.150;2023-11-19T08:12:10;1.45;;;0.50;;
2928;SDS011;1474;51.460;7.150;2023-11-19T08:14:36;1.35;;;0.50;;
2928;SDS011;1474;51.460;7.150;2023-11-19T08:17:04;1.05;;;0.60;;
2928;SDS011;1474;51.460;7.150;2023-11-19T08:19:30;3.08;;;0.70;;
2928;SDS011;1474;51.460;7.150;2023-11-19T08:21:56;1.65;;;0.60;;
2928;SDS011;1474;51.460;7.150;2023-11-19T08:24:21;1.25;;;0.43;;
2928;SDS011;1474;51.460;7.150;2023-11-19T08:26:47;0.88;;;0.57;;
2928;SDS011;1474;51.460;7.150;2023-11-19T08:29:13;0.65;;;0.60;;
2928;SDS011;1474;51.460;7.150;2023-11-19T08:31:39;1.38;;;0.65;;
2928;SDS011;1474;51.460;7.150;2023-11-19T08:34:05;2.10;;;0.95;;
2928;SDS011;1474;51.460;7.150;2023-11-19T08:36:34;0.85;;;0.47;;
2928;SDS011;1474;51.460;7.150;2023-11-19T08:39:00;1.25;;;0.40;;
2928;SDS011;1474;51.460;7.150;2023-11-19T08:41:26;1.55;;;0.60;;
2928;SDS011;1474;51.460;7.150;2023-11-19T08:43:52;1.23;;;0.50;;
2928;SDS011;1474;51.460;7.150;2023-11-19T08:46:18;1.63;;;0.98;;
2928;SDS011;1474;51.460;7.150;2023-11-19T08:48:43;1.73;;;0.40;;
2928;SDS011;1474;51.460;7.150;2023-11-19T08:51:10;2.83;;;0.60;;
2928;SDS011;1474;51.460;7.150;2023-11-19T08:53:35;5.80;;;1.00;;
2928;SDS011;1474;51.460;7.150;2023-11-19T08:56:01;1.90;;;0.70;;
2928;SDS011;1474;51.460;7.150;2023-11-19T08:58:28;1.20;;;0.43;;
2928;SDS011;1474;51.460;7.150;2023-11-19T09:00:54;3.50;;;0.52;;
2928;SDS011;1474;51.460;7.150;2023-11-19T09:03:20;2.58;;;0.50;;
2928;SDS011;1474;51.460;7.150;2023-11-19T09:05:46;1.27;;;0.70;;
2928;SDS011;1474;51.460;7.150;2023-11-19T09:08:11;1.92;;;0.93;;
2928;SDS011;1474;51.460;7.150;2023-11-19T09:10:37;2.85;;;0.90;;
2928;SDS011;1474;51.460;7.150;2023-11-19T09:13:03;3.63;;;0.70;;
2928;SDS011;1474;51.460;7.150;2023-11-19T09:15:29;3.53;;;0.90;;
2928;SDS011;1474;51.460;7.150;2023-11-19T09:17:55;5.45;;;1.30;;
2928;SDS011;1474;51.460;7.150;2023-11-19T09:20:21;8.50;;;1.30;;
2928;SDS011;1474;51.460;7.150;2023-11-19T09:22:47;8.27;;;1.60;;
2928;SDS011;1474;51.460;7.150;2023-11-19T09:25:13;8.98;;;2.40;;
2928;SDS011;1474;51.460;7.150;2023-11-19T09:27:42;7.47;;;1.58;;
2928;SDS011;1474;51.460;7.150;2023-11-19T09:30:08;11.52;;;1.65;;
2928;SDS011;1474;51.460;7.150;2023-11-19T09:32:35;10.50;;;2.25;;
2928;SDS011;1474;51.460;7.150;2023-11-19T09:35:02;8.32;;;1.90;;
2928;SDS011;1474;51.460;7.150;2023-11-19T09:37:29;10.30;;;2.40;;
2928;SDS011;1474;51.460;7.150;2023-11-19T09:39:54;4.80;;;1.23;;
2928;SDS011;1474;51.460;7.150;2023-11-19T09:42:20;11.52;;;3.25;;
2928;SDS011;1474;51.460;7.150;2023-11-19T09:44:46;10.77;;;2.28;;
2928;SDS011;1474;51.460;7.150;2023-11-19T09:47:14;13.57;;;2.35;;
2928;SDS011;1474;51.460;7.150;2023-11-19T09:49:44;11.13;;;2.05;;
2928;SDS011;1474;51.460;7.150;2023-11-19T09:52:10;9.02;;;1.90;;
2928;SDS011;1474;51.460;7.150;2023-11-19T09:54:36;9.10;;;1.90;;
2928;SDS011;1474;51.460;7.150;2023-11-19T09:57:01;9.27;;;2.40;;
2928;SDS011;1474;51.460;7.150;2023-11-19T09:59:29;14.77;;;2.60;;
2928;SDS011;1474;51.460;7.150;2023-11-19T10:01:56;9.65;;;2.20;;
2928;SDS011;1474;51.460;7.150;2023-11-19T10:04:22;12.18;;;2.25;;
2928;SDS011;1474;51.460;7.150;2023-11-19T10:06:52;11.25;;;2.38;;
2928;SDS011;1474;51.460;7.150;2023-11-19T10:09:18;16.00;;;3.05;;
2928;SDS011;1474;51.460;7.150;2023-11-19T10:11:44;9.63;;;2.95;;
2928;SDS011;1474;51.460;7.150;2023-11-19T10:14:09;12.00;;;2.65;;
2928;SDS011;1474;51.460;7.150;2023-11-19T10:16:35;7.05;;;1.88;;
2928;SDS011;1474;51.460;7.150;2023-11-19T10:19:02;8.05;;;2.17;;
2928;SDS011;1474;51.460;7.150;2023-11-19T10:21:28;8.80;;;2.28;;
2928;SDS011;1474;51.460;7.150;2023-11-19T10:23:59;15.88;;;2.88;;
2928;SDS011;1474;51.460;7.150;2023-11-19T10:26:25;19.63;;;2.88;;
2928;SDS011;1474;51.460;7.150;2023-11-19T10:28:52;11.70;;;2.58;;
2928;SDS011;1474;51.460;7.150;2023-11-19T10:31:20;16.92;;;2.47;;
2928;SDS011;1474;51.460;7.150;2023-11-19T10:33:50;11.80;;;2.90;;
2928;SDS011;1474;51.460;7.150;2023-11-19T10:36:16;7.38;;;1.90;;
2928;SDS011;1474;51.460;7.150;2023-11-19T10:38:55;14.75;;;2.22;;
2928;SDS011;1474;51.460;7.150;2023-11-19T10:41:28;16.73;;;3.15;;
2928;SDS011;1474;51.460;7.150;2023-11-19T10:43:56;9.73;;;2.28;;
2928;SDS011;1474;51.460;7.150;2023-11-19T10:46:41;14.48;;;2.67;;
2928;SDS011;1474;51.460;7.150;2023-11-19T10:49:08;10.25;;;2.35;;
2928;SDS011;1474;51.460;7.150;2023-11-19T10:51:35;14.73;;;2.22;;
2928;SDS011;1474;51.460;7.150;2023-11-19T10:54:02;11.65;;;2.47;;
2928;SDS011;1474;51.460;7.150;2023-11-19T10:56:33;10.00;;;2.00;;
2928;SDS011;1474;51.460;7.150;2023-11-19T10:58:59;13.20;;;2.42;;
2928;SDS011;1474;51.460;7.150;2023-11-19T11:01:29;9.75;;;2.20;;
2928;SDS011;1474;51.460;7.150;2023-11-19T11:04:28;14.93;;;3.00;;
2928;SDS011;1474;51.460;7.150;2023-11-19T11:06:58;16.52;;;2.75;;
2928;SDS011;1474;51.460;7.150;2023-11-19T11:09:29;13.05;;;2.92;;
2928;SDS011;1474;51.460;7.150;2023-11-19T11:11:57;22.10;;;3.08;;
2928;SDS011;1474;51.460;7.150;2023-11-19T11:14:25;13.68;;;2.67;;
2928;SDS011;1474;51.460;7.150;2023-11-19T11:16:53;14.98;;;2.80;;
2928;SDS011;1474;51.460;7.150;2023-11-19T11:19:21;12.88;;;1.92;;
2928;SDS011;1474;51.460;7.150;2023-11-19T11:21:49;10.50;;;2.08;;
2928;SDS011;1474;51.460;7.150;2023-11-19T11:38:37;9.40;;;2.05;;
2928;SDS011;1474;51.460;7.150;2023-11-19T11:43:54;10.07;;;2.40;;
2928;SDS011;1474;51.460;7.150;2023-11-19T11:47:06;8.93;;;2.00;;
2928;SDS011;1474;51.460;7.150;2023-11-19T11:49:06;5.40;;;1.65;;
2928;SDS011;1474;51.460;7.150;2023-11-19T11:54:14;9.02;;;2.78;;
2928;SDS011;1474;51.460;7.150;2023-11-19T11:57:09;9.90;;;1.90;;
2928;SDS011;1474;51.460;7.150;2023-11-19T12:02:10;9.60;;;2.15;;
2928;SDS011;1474;51.460;7.150;2023-11-19T12:04:41;8.45;;;1.63;;
2928;SDS011;1474;51.460;7.150;2023-11-19T12:07:08;10.00;;;1.83;;
2928;SDS011;1474;51.460;7.150;2023-11-19T12:09:52;12.00;;;2.63;;
2928;SDS011;1474;51.460;7.150;2023-11-19T12:12:32;8.95;;;1.98;;
2928;SDS011;1474;51.460;7.150;2023-11-19T12:14:59;7.75;;;1.20;;
2928;SDS011;1474;51.460;7.150;2023-11-19T12:19:59;10.20;;;2.00;;
2928;SDS011;1474;51.460;7.150;2023-11-19T12:22:27;7.97;;;1.90;;
2928;SDS011;1474;51.460;7.150;2023-11-19T12:24:53;7.05;;;1.83;;
2928;SDS011;1474;51.460;7.150;2023-11-19T12:27:20;12.35;;;3.50;;
2928;SDS011;1474;51.460;7.150;2023-11-19T12:29:47;6.65;;;1.55;;
2928;SDS011;1474;51.460;7.150;2023-11-19T12:32:14;8.93;;;1.67;;
2928;SDS011;1474;51.460;7.150;2023-11-19T12:34:40;12.02;;;1.88;;
2928;SDS011;1474;51.460;7.150;2023-11-19T12:37:06;12.98;;;2.58;;
2928;SDS011;1474;51.460;7.150;2023-11-19T12:39:34;8.52;;;2.42;;
2928;SDS011;1474;51.460;7.150;2023-11-19T12:41:59;9.02;;;3.08;;
2928;SDS011;1474;51.460;7.150;2023-11-19T12:44:25;8.38;;;2.20;;
2928;SDS011;1474;51.460;7.150;2023-11-19T12:47:03;6.35;;;2.63;;
2928;SDS011;1474;51.460;7.150;2023-11-19T12:49:34;11.00;;;1.88;;
2928;SDS011;1474;51.460;7.150;2023-11-19T12:52:00;7.88;;;1.55;;
2928;SDS011;1474;51.460;7.150;2023-11-19T12:54:32;7.32;;;2.88;;
2928;SDS011;1474;51.460;7.150;2023-11-19T12:57:02;5.20;;;1.65;;
2928;SDS011;1474;51.460;7.150;2023-11-19T12:59:30;10.05;;;2.10;;
2928;SDS011;1474;51.460;7.150;2023-11-19T13:01:56;10.88;;;2.20;;
2928;SDS011;1474;51.460;7.150;2023-11-19T13:04:23;16.05;;;2.70;;
2928;SDS011;1474;51.460;7.150;2023-11-19T13:06:53;13.98;;;2.45;;
2928;SDS011;1474;51.460;7.150;2023-11-19T13:09:25;12.70;;;2.60;;
2928;SDS011;1474;51.460;7.150;2023-11-19T13:11:54;8.15;;;1.42;;
2928;SDS011;1474;51.460;7.150;2023-11-19T13:14:21;7.60;;;2.00;;
2928;SDS011;1474;51.460;7.150;2023-11-19T13:16:48;11.23;;;2.38;;
2928;SDS011;1474;51.460;7.150;2023-11-19T13:19:15;11.05;;;2.60;;
2928;SDS011;1474;51.460;7.150;2023-11-19T13:21:44;8.27;;;2.42;;
2928;SDS011;1474;51.460;7.150;2023-11-19T13:24:13;7.93;;;1.98;;
2928;SDS011;1474;51.460;7.150;2023-11-19T13:26:39;7.53;;;1.50;;
2928;SDS011;1474;51.460;7.150;2023-11-19T13:29:05;5.35;;;1.50;;
2928;SDS011;1474;51.460;7.150;2023-11-19T13:31:30;9.43;;;2.03;;
2928;SDS011;1474;51.460;7.150;2023-11-19T13:33:56;10.38;;;2.00;;
2928;SDS011;1474;51.460;7.150;2023-11-19T13:36:23;6.18;;;1.60;;
2928;SDS011;1474;51.460;7.150;2023-11-19T13:38:51;8.60;;;1.67;;
2928;SDS011;1474;51.460;7.150;2023-11-19T13:41:16;5.22;;;1.52;;
2928;SDS011;1474;51.460;7.150;2023-11-19T13:43:42;8.82;;;2.60;;
2928;SDS011;1474;51.460;7.150;2023-11-19T13:46:09;10.43;;;1.98;;
2928;SDS011;1474;51.460;7.150;2023-11-19T13:48:35;7.47;;;1.75;;
2928;SDS011;1474;51.460;7.150;2023-11-19T13:51:00;5.82;;;1.42;;
2928;SDS011;1474;51.460;7.150;2023-11-19T13:53:26;16.17;;;2.67;;
2928;SDS011;1474;51.460;7.150;2023-11-19T13:55:52;8.55;;;1.88;;
2928;SDS011;1474;51.460;7.150;2023-11-19T13:58:18;13.70;;;2.53;;
2928;SDS011;1474;51.460;7.150;2023-11-19T14:00:43;11.50;;;2.25;;
2928;SDS011;1474;51.460;7.150;2023-11-19T14:03:09;15.30;;;2.63;;
2928;SDS011;1474;51.460;7.150;2023-11-19T14:05:36;11.68;;;3.00;;
2928;SDS011;1474;51.460;7.150;2023-11-19T14:08:03;15.38;;;2.95;;
2928;SDS011;1474;51.460;7.150;2023-11-19T14:10:36;15.63;;;2.80;;
2928;SDS011;1474;51.460;7.150;2023-11-19T14:13:07;14.35;;;2.83;;
2928;SDS011;1474;51.460;7.150;2023-11-19T14:15:33;25.98;;;4.28;;
2928;SDS011;1474;51.460;7.150;2023-11-19T14:18:00;12.20;;;2.13;;
2928;SDS011;1474;51.460;7.150;2023-11-19T14:20:27;15.20;;;2.95;;
2928;SDS011;1474;51.460;7.150;2023-11-19T14:22:53;11.20;;;2.65;;
2928;SDS011;1474;51.460;7.150;2023-11-19T14:25:19;10.13;;;1.63;;
2928;SDS011;1474;51.460;7.150;2023-11-19T14:27:46;6.13;;;1.60;;
2928;SDS011;1474;51.460;7.150;2023-11-19T14:30:12;12.65;;;1.67;;
2928;SDS011;1474;51.460;7.150;2023-11-19T14:32:39;10.95;;;2.25;;
2928;SDS011;1474;51.460;7.150;2023-11-19T14:35:08;13.23;;;2.80;;
2928;SDS011;1474;51.460;7.150;2023-11-19T14:37:34;10.15;;;1.95;;
2928;SDS011;1474;51.460;7.150;2023-11-19T14:40:00;10.00;;;2.13;;
2928;SDS011;1474;51.460;7.150;2023-11-19T14:42:31;8.07;;;2.00;;
2928;SDS011;1474;51.460;7.150;2023-11-19T14:44:57;11.40;;;1.83;;
2928;SDS011;1474;51.460;7.150;2023-11-19T14:47:23;7.40;;;1.48;;
2928;SDS011;1474;51.460;7.150;2023-11-19T14:49:49;6.57;;;2.72;;
2928;SDS011;1474;51.460;7.150;2023-11-19T14:52:16;10.82;;;2.25;;
2928;SDS011;1474;51.460;7.150;2023-11-19T14:54:42;9.82;;;2.95;;
2928;SDS011;1474;51.460;7.150;2023-11-19T14:57:07;9.63;;;2.65;;
2928;SDS011;1474;51.460;7.150;2023-11-19T14:59:34;8.52;;;1.90;;
2928;SDS011;1474;51.460;7.150;2023-11-19T15:02:04;7.47;;;1.30;;
2928;SDS011;1474;51.460;7.150;2023-11-19T15:04:30;9.32;;;2.15;;
2928;SDS011;1474;51.460;7.150;2023-11-19T15:06:56;10.00;;;1.77;;
2928;SDS011;1474;51.460;7.150;2023-11-19T15:09:23;6.80;;;1.83;;
2928;SDS011;1474;51.460;7.150;2023-11-19T15:11:49;9.48;;;2.33;;
2928;SDS011;1474;51.460;7.150;2023-11-19T15:14:16;7.95;;;2.28;;
2928;SDS011;1474;51.460;7.150;2023-11-19T15:16:43;9.45;;;2.20;;
2928;SDS011;1474;51.460;7.150;2023-11-19T15:19:16;8.05;;;1.55;;
2928;SDS011;1474;51.460;7.150;2023-11-19T15:21:42;8.13;;;1.65;;
2928;SDS011;1474;51.460;7.150;2023-11-19T15:24:08;6.55;;;1.92;;
2928;SDS011;1474;51.460;7.150;2023-11-19T15:26:35;6.20;;;1.63;;
2928;SDS011;1474;51.460;7.150;2023-11-19T15:29:03;8.18;;;2.05;;
2928;SDS011;1474;51.460;7.150;2023-11-19T15:31:30;7.10;;;1.60;;
2928;SDS011;1474;51.460;7.150;2023-11-19T15:33:56;5.78;;;1.40;;
2928;SDS011;1474;51.460;7.150;2023-11-19T15:36:22;6.28;;;1.40;;
2928;SDS011;1474;51.460;7.150;2023-11-19T15:38:48;8.73;;;1.90;;
2928;SDS011;1474;51.460;7.150;2023-11-19T15:41:14;6.30;;;2.20;;